Data for 07/01/2015

Time Sea-Level Adjusted Pressure Absolute Pressure Temperature Relative Humidity Dew Point   
(mb) (inHg) (mb) (inHg) (C) (F) (%) (C) (F)
00:05 1021 30.15 851 25.13 19.7 67.5 45 7.5 45.6
00:10 1021 30.15 851 25.13 19.8 67.7 44 7.5 45.4
00:15 1021 30.15 851 25.13 19.9 67.8 45 7.9 46.1
00:20 1021 30.15 851 25.13 19.6 67.3 48 8.4 47.2
00:25 1021 30.15 850 25.1 19.3 66.8 47 7.8 46
00:30 1021 30.15 850 25.1 19.4 66.8 48 8.1 46.5
00:35 1021 30.15 850 25.1 19 66.1 48 7.9 46.1
00:40 1021 30.15 850 25.1 19.1 66.3 47 7.6 45.7
00:45 1021 30.15 850 25.1 19.2 66.6 46 7.6 45.6
00:50 1021 30.15 850 25.1 19.5 67.1 44 7.1 44.8
00:55 1021 30.15 850 25.1 19.9 67.7 43 7.2 44.9
01:00 1021 30.15 850 25.1 20 68 44 7.4 45.2
01:05 1021 30.15 850 25.1 19.9 67.9 43 7.2 44.9
01:10 1021 30.15 850 25.1 19.9 67.8 43 7 44.5
01:15 1021 30.15 850 25.1 19.8 67.7 43 7.1 44.7
01:20 1021 30.15 850 25.1 19.8 67.7 44 7.3 45.2
01:25 1021 30.15 850 25.1 19.8 67.6 43 7 44.6
01:30 1021 30.15 850 25.1 19.7 67.5 45 7.8 46
01:35 1021 30.15 850 25.1 19.5 67.2 45 7.3 45.1
01:40 1021 30.15 850 25.1 19.5 67 45 7.4 45.4
01:45 1021 30.15 850 25.1 19.2 66.6 46 7.5 45.4
01:50 1021 30.15 850 25.1 19 66.2 46 7.3 45.2
01:55 1021 30.15 850 25.1 18.9 66 47 7.6 45.7
02:00 1021 30.15 850 25.1 18.8 65.9 47 7.4 45.3
02:05 1021 30.15 850 25.1 18.8 65.9 47 7.4 45.3
02:10 1021 30.15 850 25.1 18.7 65.6 47 7.4 45.2
02:15 1021 30.15 850 25.1 18.9 66 46 7.1 44.8
02:20 1021 30.15 850 25.1 18.9 66.1 47 7.5 45.6
02:25 1021 30.15 850 25.1 18.8 65.8 47 7.4 45.3
02:30 1021 30.15 850 25.1 18.8 65.8 47 7.3 45.2
02:35 1021 30.15 850 25.1 18.8 65.9 47 7.4 45.3
02:40 1021 30.15 850 25.1 18.8 65.8 46 7.2 44.9
02:45 1021 30.15 850 25.1 18.8 65.8 47 7.4 45.3
02:50 1021 30.15 850 25.1 18.6 65.4 48 7.5 45.5
02:55 1021 30.15 850 25.1 18.3 65 48 7.4 45.3
03:00 1021 30.15 850 25.1 18.2 64.8 49 7.4 45.3
03:05 1021 30.15 850 25.1 18.1 64.5 49 7.3 45.1
03:10 1021 30.15 850 25.1 18.1 64.6 49 7.4 45.4
03:15 1021 30.15 850 25.1 18.1 64.5 49 7.4 45.4
03:20 1021 30.15 850 25.1 18.1 64.5 50 7.6 45.6
03:25 1021 30.15 850 25.1 17.9 64.2 50 7.6 45.6
03:30 1021 30.15 850 25.1 17.7 63.9 51 7.5 45.6
03:35 1021 30.15 850 25.1 17.7 63.9 51 7.6 45.6
03:40 1021 30.15 850 25.1 17.7 63.9 50 7.4 45.4
03:45 1021 30.15 850 25.1 17.8 64 51 7.5 45.5
03:50 1021 30.15 851 25.13 17.8 64 50 7.3 45.2
03:55 1021 30.15 851 25.13 17.9 64.2 50 7.4 45.2
04:00 1021 30.15 851 25.13 17.8 64 51 7.5 45.6
04:05 1021 30.15 851 25.13 17.8 64.1 51 7.6 45.7
04:10 1021 30.15 851 25.13 17.9 64.2 52 7.9 46.2
04:15 1021 30.15 851 25.13 17.9 64.1 51 7.6 45.7
04:20 1021 30.15 851 25.13 17.7 63.8 52 7.8 46
04:25 1021 30.15 851 25.13 17.5 63.5 52 7.5 45.5
04:30 1021 30.15 851 25.13 17.4 63.3 53 7.7 45.8
04:35 1021 30.15 851 25.13 17.1 62.8 54 7.7 45.9
04:40 1021 30.15 851 25.13 17 62.6 58 8.8 47.9
04:45 1021 30.15 851 25.13 17.2 63 53 7.5 45.5
04:50 1022 30.18 851 25.13 17.1 62.7 53 7.6 45.6
04:55 1022 30.18 851 25.13 17 62.6 53 7.3 45.2
05:00 1022 30.18 851 25.13 17.1 62.9 51 7.1 44.8
05:05 1022 30.18 851 25.13 17.2 63 52 7.5 45.4
05:10 1022 30.18 851 25.13 17.2 62.9 52 7.5 45.4
05:15 1022 30.18 851 25.13 17.2 62.9 52 7.4 45.3
05:20 1022 30.18 851 25.13 17.2 62.9 53 7.6 45.8
05:25 1022 30.18 851 25.13 17.2 62.9 54 7.9 46.2
05:30 1022 30.18 851 25.13 16.9 62.4 56 8 46.5
05:35 1022 30.18 851 25.13 16.7 62 56 8 46.4
05:40 1022 30.18 851 25.13 16.7 62.1 55 7.6 45.7
05:45 1022 30.18 851 25.13 17.1 62.8 54 7.9 46.2
05:50 1022 30.18 851 25.13 17.2 62.9 53 7.7 45.9
05:55 1022 30.18 851 25.13 17.3 63.2 54 8.1 46.6
06:00 1022 30.18 851 25.13 17.4 63.4 54 8.1 46.7
06:05 1022 30.18 851 25.13 17.5 63.5 52 7.7 45.9
06:10 1022 30.18 851 25.13 17.7 63.8 53 8 46.4
06:15 1022 30.18 851 25.13 17.7 63.8 54 8.4 47.1
06:20 1022 30.18 851 25.13 17.9 64.1 54 8.5 47.3
06:25 1022 30.18 851 25.13 17.8 64.1 53 8.3 46.9
06:30 1022 30.18 851 25.13 18 64.3 52 8.1 46.6
06:35 1022 30.18 851 25.13 18.4 65 51 8.1 46.5
06:40 1022 30.18 851 25.13 18.4 65.1 50 7.9 46.3
06:45 1022 30.18 851 25.13 19 66.2 49 8.2 46.7
06:50 1022 30.18 851 25.13 19.4 66.8 48 8.1 46.6
06:55 1022 30.18 851 25.13 19.7 67.5 47 8.2 46.7
07:00 1022 30.18 851 25.13 20.1 68.2 45 8.1 46.6
07:05 1022 30.18 851 25.13 20.4 68.6 47 8.7 47.7
07:10 1022 30.18 851 25.13 20.6 69.1 46 8.7 47.7
07:15 1022 30.18 851 25.13 21.1 70 44 8.5 47.3
07:20 1022 30.18 851 25.13 21.7 71.1 40 7.8 46.1
07:25 1022 30.18 851 25.13 22 71.6 41 8.2 46.8
07:30 1022 30.18 851 25.13 22.4 72.4 39 8.1 46.6
07:35 1022 30.18 851 25.13 22.3 72.2 42 9 48.2
07:40 1022 30.18 851 25.13 22.2 72 41 8.6 47.4
07:45 1022 30.18 851 25.13 22.7 72.9 40 8.8 47.8
07:50 1022 30.18 851 25.13 23.3 73.9 40 9 48.2
07:55 1022 30.18 851 25.13 24 75.1 37 8.7 47.7
08:00 1022 30.18 851 25.13 24.6 76.2 36 8.7 47.7
08:05 1022 30.18 851 25.13 24.7 76.5 36 8.9 48
08:10 1022 30.18 851 25.13 25.1 77.2 36 9.3 48.8
08:15 1022 30.18 851 25.13 25.1 77.2 34 8.3 47
08:20 1022 30.18 851 25.13 25.7 78.3 33 8.4 47.1
08:25 1022 30.18 851 25.13 25.8 78.4 34 9 48.2
08:30 1022 30.18 851 25.13 25.2 77.4 35 9 48.3
08:35 1022 30.18 851 25.13 25.1 77.2 33 8 46.4
08:40 1022 30.18 851 25.13 25.2 77.3 34 8.6 47.5
08:45 1022 30.18 851 25.13 25.8 78.4 32 7.9 46.2
08:50 1022 30.18 851 25.13 26.4 79.6 32 8.6 47.5
08:55 1022 30.18 851 25.13 26.6 79.8 30 7.6 45.8
09:00 1022 30.18 851 25.13 26.4 79.6 31 8 46.4
09:05 1022 30.18 851 25.13 26.3 79.3 32 8.4 47
09:10 1022 30.18 851 25.13 26.3 79.3 30 7.5 45.6
09:15 1022 30.18 851 25.13 26.6 79.8 30 7.8 46.1
09:20 1022 30.18 851 25.13 26.6 79.9 30 8 46.4
09:25 1022 30.18 851 25.13 27.2 81 28 7.6 45.7
09:30 1022 30.18 851 25.13 27.5 81.5 29 8.2 46.8
09:35 1022 30.18 851 25.13 27.8 82 29 8.2 46.8
09:40 1022 30.18 851 25.13 27.4 81.3 29 8 46.3
09:45 1022 30.18 851 25.13 27.2 80.9 27 6.7 44
09:50 1022 30.18 851 25.13 27.5 81.5 25 6.2 43.2
09:55 1022 30.18 851 25.13 27.2 81 23 4.6 40.3
10:00 1022 30.18 851 25.13 27.7 81.8 23 5.1 41.2
10:05 1022 30.18 851 25.13 28.3 82.9 23 5.6 42.1
10:10 1022 30.18 851 25.13 28.4 83.2 23 5.5 41.9
10:15 1022 30.18 851 25.13 28.3 82.9 22 4.9 40.8
10:20 1022 30.18 851 25.13 28.3 83 23 5.8 42.5
10:25 1022 30.18 851 25.13 28.2 82.8 24 6.3 43.3
10:30 1022 30.18 851 25.13 28.8 83.8 22 5.6 42.1
10:35 1022 30.18 851 25.13 28.5 83.3 23 5.5 41.9
10:40 1022 30.18 851 25.13 27.4 81.3 24 5.2 41.3
10:45 1022 30.18 851 25.13 27.6 81.7 23 5 41.1
10:50 1022 30.18 851 25.13 28 82.3 24 5.9 42.6
10:55 1022 30.18 851 25.13 28 82.5 24 6.2 43.1
11:00 1022 30.18 851 25.13 28.4 83.1 24 6.4 43.5
11:05 1022 30.18 851 25.13 28.5 83.4 24 6.4 43.6
11:10 1022 30.18 851 25.13 28.2 82.8 24 6.2 43.1
11:15 1022 30.18 851 25.13 28 82.4 24 5.7 42.2
11:20 1022 30.18 851 25.13 28.6 83.4 22 5.2 41.4
11:25 1021 30.15 851 25.13 28.7 83.7 23 6 42.7
11:30 1021 30.15 851 25.13 28.9 84.1 22 5.4 41.8
11:35 1021 30.15 851 25.13 29.1 84.5 21 5.2 41.4
11:40 1021 30.15 851 25.13 28.9 84 22 5.2 41.4
11:45 1021 30.15 851 25.13 28.7 83.7 22 5.3 41.6
11:50 1021 30.15 850 25.1 29 84.2 22 5.4 41.6
11:55 1021 30.15 850 25.1 29 84.2 21 4.9 40.7
12:00 1021 30.15 850 25.1 29.2 84.5 22 5.3 41.6
12:05 1021 30.15 850 25.1 29.3 84.7 21 5.1 41.2
12:10 1021 30.15 850 25.1 29.2 84.5 22 5.8 42.4
12:15 1021 30.15 850 25.1 28.9 84 23 6.2 43.1
12:20 1021 30.15 850 25.1 29.2 84.5 22 5.6 42
12:25 1021 30.15 850 25.1 29.4 84.9 22 6.1 43
12:30 1021 30.15 850 25.1 29.5 85 23 6.4 43.5
12:35 1021 30.15 850 25.1 29.1 84.4 23 6.3 43.4
12:40 1021 30.15 850 25.1 29.3 84.7 23 6.2 43.2
12:45 1021 30.15 850 25.1 29.6 85.4 23 6.4 43.5
12:50 1021 30.15 850 25.1 29.7 85.4 23 6.4 43.6
12:55 1021 30.15 850 25.1 29.6 85.2 22 6.1 42.9
13:00 1021 30.15 850 25.1 30 85.9 22 6.4 43.5
13:05 1021 30.15 850 25.1 30.4 86.6 23 7 44.5
13:10 1021 30.15 850 25.1 30.2 86.4 23 6.9 44.4
13:15 1021 30.15 850 25.1 30.4 86.7 22 6.6 43.9
13:20 1021 30.15 850 25.1 30.5 86.8 21 6.2 43.2
13:25 1021 30.15 850 25.1 29.7 85.5 23 6.5 43.6
13:30 1021 30.15 850 25.1 28.9 83.9 23 6.2 43.1
13:35 1021 30.15 850 25.1 30.1 86.2 22 6.4 43.6
13:40 1021 30.15 850 25.1 30.7 87.3 21 6.1 43
13:45 1021 30.15 850 25.1 30.7 87.2 21 6.2 43.2
13:50 1021 30.15 850 25.1 30.5 86.9 21 6.1 42.9
13:55 1021 30.15 850 25.1 30.8 87.5 20 5.9 42.6
14:00 1021 30.15 850 25.1 30.8 87.4 21 6.1 42.9
14:05 1021 30.15 850 25.1 30.4 86.7 20 5.5 41.9
14:10 1020 30.12 850 25.1 30.4 86.7 19 4.5 40.1
14:15 1020 30.12 850 25.1 29.5 85.1 21 5.3 41.5
14:20 1020 30.12 850 25.1 30.4 86.6 19 4.4 40
14:25 1020 30.12 850 25.1 30.5 86.9 19 4.5 40
14:30 1020 30.12 849 25.07 31.2 88.1 19 5.5 41.9
14:35 1020 30.12 849 25.07 31 87.8 20 5.5 41.8
14:40 1020 30.12 849 25.07 31.1 87.9 18 4.4 39.9
14:45 1020 30.12 849 25.07 31.4 88.4 18 4.8 40.7
14:50 1020 30.12 849 25.07 31 87.7 20 5.6 42
14:55 1020 30.12 849 25.07 31.1 88 18 4.3 39.7
15:00 1020 30.12 849 25.07 30.6 87.1 19 5 40.9
15:05 1020 30.12 849 25.07 30.5 86.9 19 5 40.9
15:10 1020 30.12 849 25.07 30.6 87.1 20 5.2 41.3
15:15 1020 30.12 849 25.07 30.7 87.3 19 4.6 40.3
15:20 1020 30.12 849 25.07 30.9 87.6 18 4.5 40.1
15:25 1020 30.12 849 25.07 31 87.9 18 4.3 39.8
15:30 1020 30.12 849 25.07 31.1 87.9 18 4 39.2
15:35 1020 30.12 849 25.07 31.5 88.6 18 4.7 40.4
15:40 1020 30.12 849 25.07 31.6 88.9 17 3.8 38.8
15:45 1020 30.12 849 25.07 31.8 89.2 16 3.5 38.3
15:50 1020 30.12 849 25.07 31.6 88.8 18 4.4 39.9
15:55 1020 30.12 849 25.07 31.3 88.4 17 3.8 38.8
16:00 1020 30.12 849 25.07 31.5 88.7 17 3.9 39.1
16:05 1020 30.12 849 25.07 31.6 88.9 16 3.4 38.2
16:10 1020 30.12 849 25.07 31.8 89.2 17 4.1 39.3
16:15 1020 30.12 849 25.07 31.4 88.5 16 2.7 36.8
16:20 1020 30.12 849 25.07 31.3 88.4 15 2.1 35.7
16:25 1020 30.12 849 25.07 31.5 88.7 15 2.4 36.3
16:30 1020 30.12 849 25.07 30.7 87.2 16 2.8 37
16:35 1020 30.12 849 25.07 31 87.9 18 4.2 39.5
16:40 1020 30.12 849 25.07 31.5 88.7 15 2.2 35.9
16:45 1020 30.12 849 25.07 30.8 87.4 17 3.3 37.9
16:50 1020 30.12 849 25.07 31.1 88 15 1.7 35.1
16:55 1020 30.12 849 25.07 31.8 89.2 15 2 35.7
17:00 1020 30.12 849 25.07 31.5 88.8 15 2.2 36
17:05 1020 30.12 849 25.07 31.6 88.9 15 2.5 36.6
17:10 1020 30.12 849 25.07 30.7 87.2 15 1.9 35.4
17:15 1020 30.12 849 25.07 30.5 87 17 3 37.4
17:20 1020 30.12 849 25.07 30.4 86.8 16 1.7 35.1
17:25 1020 30.12 849 25.07 30.1 86.3 17 2.8 37.1
17:30 1020 30.12 849 25.07 30.1 86.2 16 2 35.6
17:35 1020 30.12 849 25.07 30.7 87.3 15 2 35.5
17:40 1019 30.09 849 25.07 31.4 88.5 15 2.2 36
17:45 1019 30.09 849 25.07 30.8 87.5 17 3.2 37.8
17:50 1019 30.09 849 25.07 30.1 86.2 17 2.9 37.3
17:55 1019 30.09 849 25.07 30.1 86.1 18 3.3 38
18:00 1019 30.09 849 25.07 29.6 85.3 19 3.8 38.8
18:05 1019 30.09 849 25.07 29.4 84.9 18 3.2 37.7
18:10 1020 30.12 849 25.07 29.3 84.7 18 3 37.4
18:15 1020 30.12 849 25.07 29.3 84.8 18 3.1 37.6
18:20 1020 30.12 849 25.07 29.4 84.9 17 2.5 36.5
18:25 1020 30.12 849 25.07 29.7 85.5 17 2.8 37
18:30 1020 30.12 849 25.07 30.1 86.2 17 3 37.4
18:35 1020 30.12 849 25.07 29.7 85.4 18 3.1 37.6
18:40 1020 30.12 849 25.07 29.2 84.5 18 2.5 36.4
18:45 1020 30.12 849 25.07 29.1 84.4 18 2.9 37.3
18:50 1020 30.12 849 25.07 28.9 84.1 18 2.7 36.9
18:55 1020 30.12 849 25.07 28.8 83.8 18 2.5 36.4
19:00 1020 30.12 849 25.07 28.8 83.8 17 1.5 34.7
19:05 1020 30.12 849 25.07 28.9 83.9 17 2 35.6
19:10 1020 30.12 849 25.07 28.8 83.8 18 2.2 36
19:15 1020 30.12 849 25.07 28.6 83.5 16 1 33.8
19:20 1020 30.12 849 25.07 28.4 83.2 17 1.4 34.5
19:25 1020 30.12 849 25.07 28.3 82.9 18 1.7 35
19:30 1020 30.12 849 25.07 28.2 82.7 18 1.7 35
19:35 1020 30.12 849 25.07 28 82.3 18 1.8 35.3
19:40 1020 30.12 850 25.1 27.9 82.1 18 2 35.7
19:45 1020 30.12 850 25.1 27.7 81.9 19 2.2 35.9
19:50 1020 30.12 850 25.1 27.6 81.6 19 2.2 35.9
19:55 1020 30.12 850 25.1 27.4 81.2 20 2.7 36.9
20:00 1020 30.12 850 25.1 27 80.6 22 3.6 38.4
20:05 1020 30.12 850 25.1 26.6 79.9 21 2.6 36.7
20:10 1020 30.12 850 25.1 26.4 79.6 22 3.6 38.4
20:15 1020 30.12 850 25.1 26.1 79 24 4.1 39.3
20:20 1021 30.15 850 25.1 25.5 77.9 25 4.1 39.4
20:25 1021 30.15 850 25.1 25 77 31 6.8 44.3
20:30 1021 30.15 850 25.1 24.3 75.7 36 8.3 46.9
20:35 1021 30.15 850 25.1 23.8 74.8 41 10 50
20:40 1021 30.15 850 25.1 23.1 73.7 43 10.2 50.4
20:45 1021 30.15 850 25.1 22.7 72.9 45 10.3 50.6
20:50 1021 30.15 850 25.1 22.4 72.3 47 10.6 51
20:55 1021 30.15 851 25.13 22.1 71.7 48 10.7 51.2
21:00 1021 30.15 851 25.13 21.9 71.3 49 10.9 51.6
21:05 1022 30.18 851 25.13 21.6 70.8 50 10.9 51.7
21:10 1022 30.18 851 25.13 21.3 70.4 51 10.9 51.5
21:15 1022 30.18 851 25.13 21.1 70 51 10.8 51.4
21:20 1022 30.18 851 25.13 20.9 69.6 51 10.6 51.2
21:25 1022 30.18 851 25.13 20.8 69.4 52 10.7 51.3
21:30 1022 30.18 851 25.13 20.6 69.1 53 10.8 51.4
21:35 1022 30.18 851 25.13 20.5 68.9 53 10.8 51.5
21:40 1022 30.18 851 25.13 20.4 68.7 54 10.8 51.5
21:45 1022 30.18 851 25.13 20.3 68.6 54 10.8 51.4
21:50 1022 30.18 851 25.13 20.3 68.5 54 10.9 51.6
21:55 1022 30.18 851 25.13 20.2 68.3 54 10.8 51.5
22:00 1022 30.18 851 25.13 20.1 68.2 55 10.8 51.5
22:05 1022 30.18 851 25.13 20 68 55 10.8 51.5
22:10 1022 30.18 851 25.13 20 67.9 55 10.8 51.4
22:15 1022 30.18 851 25.13 19.9 67.8 55 10.7 51.2
22:20 1022 30.18 851 25.13 19.9 67.8 55 10.7 51.3
22:25 1022 30.18 851 25.13 19.8 67.7 55 10.7 51.3
22:30 1022 30.18 851 25.13 19.8 67.6 55 10.7 51.3
22:35 1022 30.18 852 25.16 19.8 67.6 56 10.9 51.6
22:40 1022 30.18 852 25.16 19.7 67.5 57 11 51.8
22:45 1022 30.18 852 25.16 19.6 67.3 57 11 51.8
22:50 1022 30.18 852 25.16 19.6 67.2 57 11 51.8
22:55 1022 30.18 852 25.16 19.5 67.1 58 11 51.8
23:00 1023 30.21 852 25.16 19.5 67 58 11.1 52
23:05 1023 30.21 852 25.16 19.5 67.1 58 11.1 52
23:10 1023 30.21 852 25.16 19.4 66.9 58 11.1 52
23:15 1023 30.21 852 25.16 19.4 66.9 58 10.9 51.7
23:20 1023 30.21 852 25.16 19.4 66.8 57 10.8 51.5
23:25 1023 30.21 852 25.16 19.3 66.8 57 10.6 51.1
23:30 1023 30.21 852 25.16 19.2 66.6 57 10.6 51
23:35 1023 30.21 852 25.16 19.2 66.5 56 10.4 50.6
23:40 1023 30.21 852 25.16 19.1 66.4 56 10.3 50.6
23:45 1023 30.21 852 25.16 19.2 66.5 55 10 50
23:50 1023 30.21 852 25.16 19.2 66.5 56 10.3 50.5
23:55 1023 30.21 852 25.16 19.1 66.3 55 10 50
24:00 1023 30.21 852 25.16 19.1 66.3 55 10 49.9